createdAt,value
2022-08-26T00:01:14.149Z,23.11
2022-08-26T00:11:26.616Z,23.15
2022-08-26T00:21:31.220Z,23.25
2022-08-26T00:31:34.300Z,23.06
2022-08-26T00:41:41.467Z,22.91
2022-08-26T00:51:48.640Z,22.91
2022-08-26T01:01:52.767Z,22.67
2022-08-26T01:11:58.149Z,22.06
2022-08-26T01:22:06.839Z,21.67
2022-08-26T01:32:15.242Z,21.64
2022-08-26T01:42:20.037Z,21.77
2022-08-26T01:52:28.268Z,21.68
2022-08-26T02:02:31.260Z,21.51
2022-08-26T02:12:35.607Z,21.37
2022-08-26T02:22:40.376Z,21.29
2022-08-26T02:32:45.054Z,21.11
2022-08-26T02:42:47.840Z,21.10
2022-08-26T02:52:52.505Z,21.00
2022-08-26T03:02:55.598Z,20.93
2022-08-26T03:13:00.528Z,20.83
2022-08-26T03:23:08.123Z,20.71
2022-08-26T03:33:14.334Z,20.39
2022-08-26T03:43:17.897Z,20.32
2022-08-26T03:53:23.790Z,20.41
2022-08-26T04:03:41.757Z,20.39
2022-08-26T04:13:45.876Z,20.32
2022-08-26T04:23:48.721Z,20.63
2022-08-26T04:33:52.758Z,20.87
2022-08-26T04:43:57.036Z,21.07
2022-08-26T04:54:01.703Z,21.21
2022-08-26T05:04:06.022Z,21.45
2022-08-26T05:14:12.524Z,21.57
2022-08-26T05:24:15.765Z,21.79
2022-08-26T05:34:20.865Z,21.90
2022-08-26T05:44:23.868Z,22.12
2022-08-26T05:54:27.916Z,22.41
2022-08-26T06:04:31.287Z,22.58
2022-08-26T06:14:36.024Z,22.80
2022-08-26T06:24:56.224Z,22.87
2022-08-26T06:35:00.530Z,22.86
2022-08-26T06:45:04.456Z,23.03
2022-08-26T06:55:10.767Z,23.01
2022-08-26T07:05:14.504Z,23.00
2022-08-26T07:15:19.287Z,23.16
2022-08-26T07:25:29.943Z,23.07
2022-08-26T07:35:34.171Z,23.30
2022-08-26T07:45:38.135Z,23.39
2022-08-26T07:55:43.053Z,23.34
2022-08-26T08:05:46.412Z,23.32
2022-08-26T08:15:51.253Z,23.47
2022-08-26T08:26:01.686Z,23.68
2022-08-26T08:36:07.667Z,23.84
2022-08-26T08:46:14.946Z,23.89
2022-08-26T08:56:23.693Z,24.10
2022-08-26T09:06:27.702Z,24.31
2022-08-26T09:16:40.648Z,24.70
2022-08-26T09:26:47.609Z,24.94
2022-08-26T09:36:53.548Z,24.87
2022-08-26T09:46:59.883Z,24.85
2022-08-26T09:57:28.951Z,24.87
2022-08-26T10:07:42.221Z,24.70
2022-08-26T10:17:50.672Z,25.38
2022-08-26T10:28:04.806Z,24.51
2022-08-26T10:38:15.077Z,25.02
2022-08-26T10:48:25.151Z,25.21
2022-08-26T10:58:39.491Z,25.27
2022-08-26T11:08:47.178Z,25.53
2022-08-26T11:18:54.604Z,25.37
2022-08-26T11:28:58.256Z,25.75
2022-08-26T11:39:03.163Z,26.79
2022-08-26T11:49:08.305Z,25.40
2022-08-26T11:59:16.725Z,25.98
2022-08-26T12:09:23.018Z,25.46
2022-08-26T12:19:29.413Z,25.50
2022-08-26T12:29:36.391Z,24.83
2022-08-26T12:39:45.567Z,29.70
2022-08-26T12:49:48.296Z,27.99
2022-08-26T12:59:52.423Z,26.67
2022-08-26T13:09:57.003Z,26.52
2022-08-26T13:20:04.146Z,26.89
2022-08-26T13:30:07.943Z,26.36
2022-08-26T13:40:13.071Z,26.19
2022-08-26T13:50:15.899Z,26.54
2022-08-26T14:00:21.015Z,26.51
2022-08-26T14:10:24.207Z,26.09
2022-08-26T14:20:30.791Z,25.99
2022-08-26T14:30:33.711Z,25.63
2022-08-26T14:40:40.098Z,25.61
2022-08-26T14:50:42.813Z,25.39
2022-08-26T15:00:47.050Z,24.72
2022-08-26T15:10:50.701Z,24.35
2022-08-26T15:20:54.755Z,24.20
2022-08-26T15:30:57.571Z,23.73
2022-08-26T15:41:03.395Z,23.57
2022-08-26T15:51:08.317Z,23.42
2022-08-26T16:01:12.398Z,22.91
2022-08-26T16:11:15.802Z,22.58
2022-08-26T16:21:22.437Z,22.41
2022-08-26T16:31:25.285Z,22.44
2022-08-26T16:41:31.152Z,22.52
2022-08-26T16:51:37.682Z,22.42
2022-08-26T17:01:42.516Z,22.35
2022-08-26T17:11:45.615Z,22.05
2022-08-26T17:21:49.891Z,21.82
2022-08-26T17:31:52.617Z,21.67
2022-08-26T17:41:56.634Z,21.72
2022-08-26T17:51:59.815Z,21.23
2022-08-26T18:02:04.001Z,21.03
2022-08-26T18:12:07.369Z,20.87
2022-08-26T18:22:11.451Z,20.70
2022-08-26T18:32:18.706Z,20.57
2022-08-26T18:42:23.536Z,20.74
2022-08-26T18:52:26.365Z,20.49
2022-08-26T19:02:30.826Z,20.49
2022-08-26T19:12:33.599Z,20.35
2022-08-26T19:22:37.804Z,20.47
2022-08-26T19:32:40.539Z,20.62
2022-08-26T19:42:44.767Z,20.46
2022-08-26T19:52:47.939Z,20.41
2022-08-26T20:02:52.994Z,20.26
2022-08-26T20:12:55.916Z,20.30
2022-08-26T20:23:00.272Z,20.27
2022-08-26T20:33:03.025Z,20.30
2022-08-26T20:43:07.183Z,20.25
2022-08-26T20:53:11.129Z,20.21
2022-08-26T21:03:15.287Z,20.22
2022-08-26T21:13:18.464Z,20.14
2022-08-26T21:23:26.349Z,20.12
2022-08-26T21:33:31.500Z,20.09
2022-08-26T21:43:36.756Z,20.09
2022-08-26T21:53:40.395Z,20.07
2022-08-26T22:03:46.822Z,20.13
2022-08-26T22:13:50.764Z,20.06
2022-08-26T22:23:57.986Z,20.04
2022-08-26T22:34:01.321Z,20.00
2022-08-26T22:44:05.792Z,19.94
2022-08-26T22:54:08.512Z,19.61
2022-08-26T23:04:13.013Z,19.11
2022-08-26T23:14:16.332Z,18.99
2022-08-26T23:24:20.528Z,18.92
2022-08-26T23:34:40.717Z,18.85
2022-08-26T23:44:45.559Z,18.94
2022-08-26T23:54:48.725Z,18.82
